createdAt,value
2022-11-05T02:36:31.482Z,8.15
2022-11-05T02:39:14.150Z,8.32
2022-11-05T02:41:49.865Z,9.40
2022-11-05T02:44:26.772Z,8.43
2022-11-05T02:46:58.540Z,8.65
2022-11-05T02:49:38.356Z,8.02
2022-11-05T02:52:12.419Z,7.53
2022-11-05T02:54:44.351Z,8.65
2022-11-05T04:17:59.855Z,6.90
2022-11-05T04:20:45.174Z,6.68
2022-11-05T04:23:30.657Z,7.68
2022-11-05T04:25:57.627Z,8.32
2022-11-05T04:28:44.320Z,8.38
2022-11-05T04:58:44.593Z,7.30
2022-11-05T05:01:13.166Z,7.03
2022-11-05T05:03:40.101Z,7.15
2022-11-05T05:22:37.791Z,16.35
2022-11-05T05:25:06.205Z,15.02
2022-11-05T05:27:34.374Z,15.10
2022-11-05T05:44:57.145Z,12.98
2022-11-05T05:47:23.925Z,10.35
2022-11-05T05:49:50.880Z,11.07
2022-11-05T05:52:17.836Z,11.27
2022-11-05T05:54:44.601Z,9.73
2022-11-05T05:57:11.319Z,10.80
2022-11-05T05:59:38.087Z,11.80
2022-11-05T06:02:06.302Z,11.02
2022-11-05T06:04:33.194Z,11.88
2022-11-05T06:07:00.130Z,12.25
2022-11-05T06:09:26.865Z,12.18
2022-11-05T06:11:53.818Z,13.45
2022-11-05T06:14:20.582Z,10.95
2022-11-05T06:16:47.391Z,11.85
2022-11-05T06:19:15.521Z,13.70
2022-11-05T06:21:42.285Z,10.95
2022-11-05T06:24:09.232Z,13.00
2022-11-05T06:26:36.136Z,11.40
2022-11-05T06:29:03.024Z,13.23
2022-11-05T06:31:29.776Z,12.88
2022-11-05T06:33:56.557Z,12.85
2022-11-05T06:36:24.751Z,12.63
2022-11-05T06:38:51.571Z,13.63
2022-11-05T06:41:18.339Z,13.43
2022-11-05T06:43:47.459Z,12.95
2022-11-05T06:46:14.209Z,12.25
2022-11-05T06:48:41.345Z,12.38
2022-11-05T06:51:09.429Z,13.82
2022-11-05T06:53:38.616Z,12.77
2022-11-05T06:56:09.380Z,12.90
2022-11-05T07:04:06.315Z,12.13
2022-11-05T07:06:36.972Z,13.23
2022-11-05T07:09:05.425Z,13.17
2022-11-05T07:11:32.234Z,13.10
2022-11-05T07:13:59.046Z,13.98
2022-11-05T07:16:25.784Z,13.73
2022-11-05T07:18:52.979Z,13.77
2022-11-05T07:21:19.841Z,13.93
2022-11-05T07:23:46.990Z,13.10
2022-11-05T07:26:15.159Z,15.02
2022-11-05T07:28:41.903Z,13.43
2022-11-05T07:31:08.913Z,13.55
2022-11-05T07:33:36.825Z,13.35
2022-11-05T07:36:04.111Z,14.50
2022-11-05T07:38:30.882Z,12.63
2022-11-05T07:40:59.247Z,12.00
2022-11-05T07:43:27.477Z,12.65
2022-11-05T07:45:54.326Z,11.32
2022-11-05T07:48:57.803Z,11.85
2022-11-05T07:57:25.702Z,10.88
2022-11-05T07:59:53.960Z,11.75
2022-11-05T08:02:21.191Z,11.32
2022-11-05T08:04:48.189Z,11.90
2022-11-05T08:13:22.848Z,10.60
2022-11-05T08:15:50.929Z,10.82
2022-11-05T08:18:18.087Z,10.18
2022-11-05T08:20:46.463Z,10.98
2022-11-05T08:23:14.421Z,10.45
2022-11-05T08:25:42.011Z,9.70
2022-11-05T08:28:11.524Z,9.05
2022-11-05T08:30:38.280Z,9.18
2022-11-05T08:33:09.078Z,9.00
2022-11-05T08:35:37.501Z,8.57
2022-11-05T08:38:06.535Z,9.32
2022-11-05T08:40:35.727Z,8.50
2022-11-05T08:43:04.849Z,7.85
2022-11-05T08:45:32.014Z,7.22
2022-11-05T08:47:59.563Z,7.57
2022-11-05T08:50:27.924Z,7.13
2022-11-05T08:52:54.795Z,6.68
2022-11-05T08:55:21.595Z,6.03
2022-11-05T08:57:48.536Z,7.65
2022-11-05T09:00:15.999Z,7.05
2022-11-05T09:02:42.870Z,6.40
2022-11-05T09:05:09.659Z,6.78
2022-11-05T09:07:37.907Z,6.00
2022-11-05T09:10:05.360Z,7.70
2022-11-05T09:12:32.109Z,6.50
2022-11-05T09:14:58.864Z,6.43
2022-11-05T09:17:25.681Z,7.38
2022-11-05T09:19:52.624Z,6.15
2022-11-05T09:22:19.378Z,7.05
2022-11-05T09:24:47.513Z,6.93
2022-11-05T09:27:14.751Z,7.30
2022-11-05T09:29:42.053Z,6.70
2022-11-05T09:32:09.503Z,6.45
2022-11-05T09:34:36.592Z,5.93
2022-11-05T09:37:04.148Z,7.15
2022-11-05T09:39:30.943Z,7.45
2022-11-05T09:42:04.534Z,7.10
2022-11-05T09:44:40.541Z,7.28
2022-11-05T09:47:12.649Z,6.65
2022-11-05T09:49:42.480Z,6.07
2022-11-05T09:52:15.127Z,6.80
2022-11-05T09:54:42.053Z,6.55
2022-11-05T09:57:16.359Z,6.07
2022-11-05T09:59:47.079Z,6.55
2022-11-05T10:02:19.554Z,6.25
2022-11-05T10:04:51.527Z,7.20
2022-11-05T10:07:21.513Z,6.18
2022-11-05T10:09:51.536Z,6.90
2022-11-05T10:12:26.342Z,6.80
2022-11-05T10:15:05.581Z,7.20
2022-11-05T10:17:39.037Z,7.97
2022-11-05T10:20:14.987Z,7.05
2022-11-05T10:22:45.188Z,7.70
2022-11-05T10:25:18.979Z,7.95
2022-11-05T10:27:52.139Z,6.95
2022-11-05T10:30:19.854Z,6.97
2022-11-05T10:32:48.310Z,7.30
2022-11-05T10:35:18.560Z,7.38
2022-11-05T10:37:46.720Z,7.00
2022-11-05T10:40:23.107Z,7.47
2022-11-05T10:42:58.698Z,7.57
2022-11-05T10:45:35.059Z,6.88
2022-11-05T10:48:44.116Z,7.43
2022-11-05T10:51:11.746Z,7.45
2022-11-05T10:53:39.664Z,7.60
2022-11-05T10:56:28.860Z,7.35
2022-11-05T10:58:59.885Z,7.60
2022-11-05T11:01:27.179Z,7.68
2022-11-05T11:04:08.294Z,7.30
2022-11-05T11:06:38.078Z,6.85
2022-11-05T11:09:08.266Z,7.75
2022-11-05T11:11:37.328Z,6.82
2022-11-05T11:14:19.673Z,7.50
2022-11-05T11:16:48.458Z,6.82
2022-11-05T11:19:26.199Z,6.95
2022-11-05T11:22:20.754Z,6.75
2022-11-05T11:27:20.865Z,6.32
2022-11-05T11:29:54.688Z,7.40
2022-11-05T11:32:22.357Z,7.90
2022-11-05T11:34:52.899Z,7.18
2022-11-05T11:37:23.867Z,7.70
2022-11-05T11:39:54.240Z,6.78
2022-11-05T11:42:26.869Z,7.65
2022-11-05T11:44:59.157Z,6.45
2022-11-05T11:47:27.953Z,7.57
2022-11-05T11:49:56.236Z,7.95
2022-11-05T11:52:28.268Z,7.75
2022-11-05T11:55:17.433Z,7.22
2022-11-05T11:57:46.709Z,6.63
2022-11-05T12:00:15.764Z,8.32
2022-11-05T12:03:04.177Z,7.63
2022-11-05T12:05:36.456Z,7.65
2022-11-05T12:08:16.685Z,7.63
2022-11-05T12:10:54.387Z,8.30
2022-11-05T12:13:36.668Z,7.53
2022-11-05T12:16:18.415Z,7.85
2022-11-05T12:18:49.042Z,8.07
2022-11-05T12:21:34.844Z,7.82
2022-11-05T12:24:39.706Z,7.55
2022-11-05T12:27:19.346Z,7.30
2022-11-05T12:29:54.085Z,7.05
2022-11-05T12:32:55.341Z,7.93
2022-11-05T12:35:44.151Z,7.88
2022-11-05T12:38:26.269Z,7.65
2022-11-05T12:41:09.128Z,7.85
2022-11-05T12:43:47.311Z,7.10
2022-11-05T12:46:26.576Z,7.55
2022-11-05T12:49:14.792Z,7.05
2022-11-05T12:51:55.648Z,7.15
2022-11-05T12:54:31.832Z,6.82
2022-11-05T12:57:01.054Z,6.30
2022-11-05T12:59:34.794Z,6.95
2022-11-05T13:02:07.752Z,7.53
2022-11-05T13:04:43.634Z,7.68
2022-11-05T13:07:16.989Z,7.55
2022-11-05T13:09:49.466Z,7.85
2022-11-05T13:12:21.106Z,7.38
2022-11-05T13:14:53.536Z,7.18
2022-11-05T13:17:23.483Z,7.18
2022-11-05T13:19:57.476Z,7.28
2022-11-05T13:22:33.443Z,7.85
2022-11-05T13:25:06.004Z,6.68
2022-11-05T13:27:48.114Z,6.28
2022-11-05T13:30:18.521Z,6.85
2022-11-05T13:32:48.971Z,7.13
2022-11-05T13:35:23.010Z,7.15
2022-11-05T13:38:12.755Z,6.32
2022-11-05T13:40:50.325Z,6.40
2022-11-05T13:43:46.205Z,6.80
2022-11-05T13:46:34.717Z,5.90
2022-11-05T13:49:18.919Z,6.78
2022-11-05T13:55:12.608Z,5.70
2022-11-05T13:57:59.416Z,5.55
2022-11-05T14:00:28.533Z,6.05
2022-11-05T14:02:57.997Z,5.63
2022-11-05T14:05:29.559Z,5.93
2022-11-05T14:08:00.347Z,5.93
2022-11-05T14:10:35.877Z,5.90
2022-11-05T14:13:16.745Z,5.47
2022-11-05T14:15:56.819Z,5.03
2022-11-05T14:18:38.015Z,5.75
2022-11-05T14:21:06.559Z,4.97
2022-11-05T14:23:50.513Z,5.68
2022-11-05T14:26:21.207Z,5.88
2022-11-05T14:28:50.645Z,5.13
2022-11-05T14:34:46.212Z,5.18
2022-11-05T14:37:26.124Z,4.72
2022-11-05T14:39:55.671Z,4.80
2022-11-05T14:42:27.164Z,5.60
2022-11-05T14:45:05.988Z,5.38
2022-11-05T14:47:35.861Z,4.72
2022-11-05T14:50:11.585Z,4.75
2022-11-05T14:52:40.910Z,4.78
2022-11-05T14:55:26.359Z,5.38
2022-11-05T14:58:22.024Z,5.18
2022-11-05T15:00:49.880Z,4.80
2022-11-05T15:03:58.737Z,4.65
2022-11-05T15:06:28.714Z,5.10
2022-11-05T15:09:14.520Z,5.30
2022-11-05T15:12:00.302Z,4.30
2022-11-05T15:14:31.734Z,5.13
2022-11-05T15:17:09.092Z,5.13
2022-11-05T15:19:39.115Z,4.05
2022-11-05T15:22:24.483Z,4.15
2022-11-05T15:24:51.680Z,5.60
2022-11-05T15:27:34.421Z,4.30
2022-11-05T15:30:13.791Z,4.72
2022-11-05T15:32:40.557Z,5.35
2022-11-05T15:35:19.103Z,4.55
2022-11-05T15:37:51.753Z,4.72
2022-11-05T15:40:25.004Z,4.57
2022-11-05T15:43:10.881Z,6.43
2022-11-05T15:45:37.943Z,4.75
2022-11-05T15:48:14.204Z,4.70
2022-11-05T15:50:41.609Z,5.53
2022-11-05T15:56:12.925Z,4.53
2022-11-05T15:58:47.119Z,4.18
2022-11-05T16:01:22.608Z,3.38
2022-11-05T16:03:51.462Z,3.50
2022-11-05T16:06:18.669Z,3.35
2022-11-05T16:08:50.356Z,4.22
2022-11-05T16:11:22.113Z,4.28
2022-11-05T16:13:51.777Z,4.03
2022-11-05T16:16:31.631Z,4.13
2022-11-05T16:18:58.483Z,3.70
2022-11-05T16:21:25.385Z,4.18
2022-11-05T16:23:57.525Z,3.83
2022-11-05T16:27:00.637Z,3.55
2022-11-05T16:29:26.012Z,3.20
2022-11-05T16:31:55.206Z,3.30
2022-11-05T16:34:26.989Z,3.85
2022-11-05T16:36:55.810Z,3.85
2022-11-05T16:39:22.560Z,3.95
2022-11-05T16:41:49.509Z,3.65
2022-11-05T16:44:16.263Z,3.90
2022-11-05T16:46:47.542Z,3.90
2022-11-05T16:49:14.721Z,3.83
2022-11-05T16:51:42.196Z,4.15
2022-11-05T16:54:09.333Z,4.60
2022-11-05T16:56:36.737Z,4.05
2022-11-05T16:59:04.276Z,3.83
2022-11-05T17:01:31.674Z,3.88
2022-11-05T17:04:00.103Z,4.30
2022-11-05T17:06:26.888Z,3.55
2022-11-05T17:08:53.629Z,4.03
2022-11-05T17:11:21.416Z,3.72
2022-11-05T17:13:48.232Z,4.30
2022-11-05T17:16:17.197Z,4.32
2022-11-05T17:18:44.221Z,4.22
2022-11-05T17:21:14.098Z,3.78
2022-11-05T17:23:40.957Z,3.65
2022-11-05T17:26:11.809Z,3.75
2022-11-05T17:28:40.741Z,3.80
2022-11-05T17:31:09.858Z,3.72
2022-11-05T17:33:37.117Z,3.92
2022-11-05T17:36:06.292Z,3.53
2022-11-05T17:38:35.066Z,3.83
2022-11-05T17:41:02.428Z,8.85
2022-11-05T17:43:29.192Z,3.92
2022-11-05T17:45:59.979Z,3.90
2022-11-05T17:48:29.952Z,4.35
2022-11-05T17:50:57.066Z,12.95
2022-11-05T17:53:23.981Z,11.05
2022-11-05T17:55:52.222Z,4.85
2022-11-05T17:58:18.997Z,4.78
2022-11-05T18:00:47.015Z,4.60
2022-11-05T18:03:14.774Z,4.13
2022-11-05T18:05:42.160Z,3.80
2022-11-05T18:08:09.388Z,3.45
2022-11-05T18:10:37.714Z,3.60
2022-11-05T18:13:06.786Z,4.10
2022-11-05T18:15:35.581Z,3.25
2022-11-05T18:18:02.768Z,3.58
2022-11-05T18:20:29.806Z,3.75
2022-11-05T18:22:56.576Z,4.60
2022-11-05T18:25:23.386Z,4.03
2022-11-05T18:27:50.363Z,3.50
2022-11-05T18:30:18.825Z,3.50
2022-11-05T18:32:45.988Z,3.53
2022-11-05T18:35:13.524Z,3.55
2022-11-05T18:37:40.866Z,4.07
2022-11-05T18:40:10.191Z,3.45
2022-11-05T18:42:37.334Z,3.97
2022-11-05T18:45:04.568Z,3.65
2022-11-05T18:47:33.666Z,3.53
2022-11-05T18:50:01.034Z,3.85
2022-11-05T18:52:31.465Z,3.80
2022-11-05T18:54:58.832Z,4.40
2022-11-05T18:57:25.929Z,4.97
2022-11-05T18:59:52.719Z,6.50
2022-11-05T19:02:19.587Z,5.20
2022-11-05T19:05:13.831Z,5.15
2022-11-05T19:07:36.300Z,5.20
2022-11-05T19:10:03.258Z,4.50
2022-11-05T19:12:30.102Z,4.70
2022-11-05T19:15:02.107Z,4.20
2022-11-05T19:17:30.806Z,3.83
2022-11-05T19:19:58.985Z,4.28
2022-11-05T19:22:26.048Z,4.35
2022-11-05T19:24:53.169Z,4.05
2022-11-05T19:27:20.089Z,3.85
2022-11-05T19:29:47.557Z,4.00
2022-11-05T19:32:14.372Z,3.90
2022-11-05T19:34:41.176Z,3.95
2022-11-05T19:37:09.779Z,4.10
2022-11-05T19:39:36.737Z,3.45
2022-11-05T19:42:04.713Z,3.33
2022-11-05T19:44:31.856Z,3.50
2022-11-05T19:46:58.782Z,3.60
2022-11-05T19:49:28.055Z,3.58
2022-11-05T19:51:55.155Z,3.50
2022-11-05T19:54:23.255Z,3.97
2022-11-05T19:56:50.880Z,3.67
2022-11-05T19:59:18.007Z,3.80
2022-11-05T20:01:45.095Z,4.28
2022-11-05T20:04:12.112Z,3.92
2022-11-05T20:06:40.714Z,3.63
2022-11-05T20:09:25.549Z,3.95
2022-11-05T20:11:56.270Z,4.32
2022-11-05T20:14:25.118Z,3.95
2022-11-05T20:16:52.458Z,3.40
2022-11-05T20:19:21.554Z,4.07
2022-11-05T20:21:48.854Z,3.45
2022-11-05T20:24:23.805Z,4.40
2022-11-05T20:26:54.376Z,3.80
2022-11-05T20:29:22.061Z,2.97
2022-11-05T20:31:49.269Z,4.28
2022-11-05T20:34:16.146Z,3.35
2022-11-05T20:36:43.002Z,3.28
2022-11-05T20:39:11.973Z,3.90
2022-11-05T20:41:38.809Z,3.72
2022-11-05T20:44:07.078Z,3.47
2022-11-05T20:46:33.951Z,3.33
2022-11-05T20:49:00.806Z,3.53
2022-11-05T20:51:27.624Z,3.92
2022-11-05T20:53:55.763Z,3.67
2022-11-05T20:56:24.220Z,3.75
2022-11-05T20:58:51.444Z,3.42
2022-11-05T21:01:20.511Z,3.33
2022-11-05T21:03:47.923Z,3.28
2022-11-05T21:06:15.608Z,3.67
2022-11-05T21:08:42.703Z,3.53
2022-11-05T21:11:10.618Z,3.72
2022-11-05T21:13:38.068Z,3.65
2022-11-05T21:16:07.418Z,3.55
2022-11-05T21:18:39.063Z,4.80
2022-11-05T21:21:07.043Z,3.50
2022-11-05T21:23:34.229Z,3.53
2022-11-05T21:26:03.837Z,3.67
2022-11-05T21:28:30.654Z,3.78
2022-11-05T21:31:00.763Z,3.92
2022-11-05T21:33:27.864Z,4.38
2022-11-05T21:35:56.483Z,3.78
2022-11-05T21:38:23.892Z,4.45
2022-11-05T21:40:50.727Z,4.10
2022-11-05T21:43:17.857Z,4.13
2022-11-05T21:45:45.467Z,4.22
2022-11-05T21:48:15.022Z,4.90
2022-11-05T21:51:01.237Z,4.70
2022-11-05T21:53:47.732Z,3.85
2022-11-05T21:56:37.476Z,4.57
2022-11-05T21:59:23.664Z,4.68
2022-11-05T22:01:50.938Z,5.03
2022-11-05T22:04:17.767Z,4.07
2022-11-05T22:06:44.554Z,4.35
2022-11-05T22:09:12.630Z,4.15
2022-11-05T22:11:39.399Z,4.45
2022-11-05T22:14:06.140Z,4.82
2022-11-05T22:16:32.951Z,4.05
2022-11-05T22:18:59.893Z,4.65
2022-11-05T22:21:26.625Z,4.85
2022-11-05T22:23:53.810Z,4.85
2022-11-05T22:26:21.988Z,4.75
2022-11-05T22:28:48.926Z,4.55
2022-11-05T22:31:16.987Z,5.72
2022-11-05T22:33:44.123Z,5.07
2022-11-05T22:36:11.959Z,4.95
2022-11-05T22:38:39.578Z,4.82
2022-11-05T22:41:10.928Z,4.30
2022-11-05T22:43:39.546Z,4.70
2022-11-05T22:46:08.656Z,5.43
2022-11-05T22:48:36.706Z,4.80
2022-11-05T22:51:04.396Z,5.38
2022-11-05T22:53:31.143Z,4.95
2022-11-05T22:55:58.375Z,5.75
2022-11-05T22:58:25.128Z,5.65
2022-11-05T23:00:53.343Z,4.90
2022-11-05T23:03:20.382Z,5.63
2022-11-05T23:05:47.113Z,5.22
2022-11-05T23:08:32.206Z,5.40
2022-11-05T23:11:28.307Z,5.65
2022-11-05T23:13:55.841Z,5.47
2022-11-05T23:16:42.269Z,4.78
2022-11-05T23:19:28.332Z,6.35
2022-11-05T23:22:13.430Z,4.78
2022-11-05T23:24:40.278Z,6.40
2022-11-05T23:27:07.463Z,5.88
2022-11-05T23:29:34.536Z,5.28
2022-11-05T23:32:20.860Z,5.32
2022-11-05T23:34:47.611Z,5.03
2022-11-05T23:37:33.267Z,4.97
2022-11-05T23:40:00.057Z,5.55
2022-11-05T23:42:45.762Z,5.18
2022-11-05T23:45:31.832Z,5.40
2022-11-05T23:48:18.274Z,4.55
2022-11-05T23:50:48.230Z,5.60
2022-11-05T23:53:15.323Z,4.80
2022-11-05T23:55:42.513Z,5.85
2022-11-05T23:58:09.728Z,4.80
